createdAt,value
2023-05-21T00:02:12.058Z,18.10
2023-05-21T00:07:10.152Z,18.00
2023-05-21T00:12:09.498Z,18.00
2023-05-21T00:17:09.157Z,17.90
2023-05-21T00:22:07.520Z,17.90
2023-05-21T00:27:06.029Z,17.80
2023-05-21T00:32:04.454Z,17.80
2023-05-21T00:37:05.106Z,17.70
2023-05-21T00:42:04.091Z,17.70
2023-05-21T00:47:02.629Z,17.60
2023-05-21T00:52:01.839Z,17.60
2023-05-21T00:57:02.813Z,17.60
2023-05-21T01:02:05.701Z,17.50
2023-05-21T01:07:03.795Z,17.50
2023-05-21T01:12:04.373Z,17.50
2023-05-21T01:17:03.626Z,17.40
2023-05-21T01:22:06.995Z,17.40
2023-05-21T01:27:10.658Z,17.40
2023-05-21T01:32:17.719Z,17.40
2023-05-21T01:37:22.812Z,17.40
2023-05-21T01:42:25.076Z,17.30
2023-05-21T01:47:25.040Z,17.30
2023-05-21T01:52:24.103Z,17.30
2023-05-21T01:57:23.839Z,17.30
2023-05-21T02:02:22.378Z,17.20
2023-05-21T02:07:20.773Z,17.20
2023-05-21T02:12:19.065Z,17.20
2023-05-21T02:17:18.755Z,17.10
2023-05-21T02:22:17.443Z,17.10
2023-05-21T02:27:17.865Z,17.10
2023-05-21T02:32:17.074Z,17.00
2023-05-21T02:37:17.704Z,17.00
2023-05-21T02:42:16.324Z,16.90
2023-05-21T02:47:15.003Z,16.90
2023-05-21T02:52:13.732Z,16.90
2023-05-21T02:57:13.929Z,16.90
2023-05-21T03:02:13.403Z,16.80
2023-05-21T03:07:14.168Z,16.80
2023-05-21T03:12:13.877Z,16.80
2023-05-21T03:17:15.287Z,16.80
2023-05-21T03:22:14.016Z,16.70
2023-05-21T03:27:13.728Z,16.80
2023-05-21T03:32:12.354Z,16.80
2023-05-21T03:37:11.114Z,16.80
2023-05-21T03:42:09.829Z,16.80
2023-05-21T03:47:18.146Z,16.90
2023-05-21T03:52:16.618Z,16.90
2023-05-21T03:57:15.124Z,16.90
2023-05-21T04:02:13.368Z,17.00
2023-05-21T04:07:15.540Z,17.00
2023-05-21T04:12:14.084Z,17.10
2023-05-21T04:17:12.859Z,17.20
2023-05-21T04:22:13.253Z,17.20
2023-05-21T04:27:11.698Z,17.30
2023-05-21T04:32:11.809Z,17.50
2023-05-21T04:37:13.319Z,17.50
2023-05-21T04:42:11.958Z,17.70
2023-05-21T04:47:10.689Z,17.80
2023-05-21T04:52:09.528Z,17.90
2023-05-21T04:57:09.427Z,18.10
2023-05-21T05:02:07.699Z,18.30
2023-05-21T05:07:06.378Z,18.30
2023-05-21T05:12:04.772Z,18.50
2023-05-21T05:17:05.645Z,18.60
2023-05-21T05:22:04.056Z,18.70
2023-05-21T05:27:02.858Z,18.90
2023-05-21T05:32:01.240Z,19.00
2023-05-21T05:37:03.143Z,19.10
2023-05-21T05:42:01.473Z,19.20
2023-05-21T05:47:00.065Z,19.30
2023-05-21T05:52:01.300Z,19.50
2023-05-21T05:56:59.639Z,19.50
2023-05-21T06:01:59.198Z,19.60
2023-05-21T06:06:58.169Z,19.70
2023-05-21T06:11:57.621Z,19.80
2023-05-21T06:16:55.936Z,19.90
2023-05-21T06:21:54.714Z,20.00
2023-05-21T06:26:53.065Z,20.00
2023-05-21T06:31:53.264Z,20.00
2023-05-21T06:36:52.511Z,20.10
2023-05-21T06:41:51.574Z,20.10
2023-05-21T06:47:10.233Z,20.10
2023-05-21T06:52:08.676Z,20.20
2023-05-21T06:57:07.457Z,20.30
2023-05-21T07:02:06.206Z,20.40
2023-05-21T07:07:06.297Z,20.60
2023-05-21T07:12:04.949Z,21.00
2023-05-21T07:17:04.221Z,21.10
2023-05-21T07:22:02.725Z,21.40
2023-05-21T07:27:11.331Z,21.70
2023-05-21T07:32:16.608Z,21.90
2023-05-21T07:37:14.868Z,22.00
2023-05-21T07:42:14.663Z,22.30
2023-05-21T07:47:12.798Z,22.60
2023-05-21T07:52:11.361Z,22.90
2023-05-21T07:57:09.697Z,23.10
2023-05-21T08:02:35.289Z,23.40
2023-05-21T08:07:33.632Z,23.70
2023-05-21T08:12:32.036Z,23.90
2023-05-21T08:17:30.627Z,23.80
2023-05-21T08:22:30.455Z,23.80
2023-05-21T08:27:28.735Z,24.20
2023-05-21T08:32:27.473Z,24.60
2023-05-21T08:37:26.422Z,24.80
2023-05-21T08:42:50.953Z,25.10
2023-05-21T08:48:01.044Z,25.10
2023-05-21T08:53:07.488Z,25.30
2023-05-21T08:58:15.929Z,25.00
2023-05-21T09:03:15.623Z,25.30
2023-05-21T09:08:17.997Z,25.20
2023-05-21T09:13:41.438Z,25.50
2023-05-21T09:18:45.976Z,26.00
2023-05-21T09:23:56.133Z,26.50
2023-05-21T09:28:59.423Z,27.00
2023-05-21T09:33:57.798Z,27.90
2023-05-21T09:39:00.104Z,28.60
2023-05-21T09:44:02.233Z,28.90
2023-05-21T09:49:01.521Z,29.20
2023-05-21T09:54:00.128Z,29.20
2023-05-21T09:59:00.622Z,29.20
2023-05-21T10:04:01.815Z,29.10
2023-05-21T10:09:05.783Z,29.40
2023-05-21T10:14:07.538Z,29.60
2023-05-21T10:19:11.152Z,30.00
2023-05-21T10:24:10.738Z,30.40
2023-05-21T10:29:10.228Z,30.50
2023-05-21T10:34:11.514Z,30.50
2023-05-21T10:39:10.971Z,30.90
2023-05-21T10:44:18.643Z,31.10
2023-05-21T10:49:43.325Z,30.50
2023-05-21T10:55:09.014Z,30.20
2023-05-21T11:00:09.296Z,30.20
2023-05-21T11:05:09.436Z,30.10
2023-05-21T11:10:31.552Z,29.70
2023-05-21T11:15:29.770Z,29.60
2023-05-21T11:20:36.164Z,29.30
2023-05-21T11:25:34.489Z,29.40
2023-05-21T11:30:34.485Z,29.60
2023-05-21T11:35:37.729Z,30.00
2023-05-21T11:40:37.345Z,30.70
2023-05-21T11:45:36.229Z,31.20
2023-05-21T11:50:37.510Z,31.30
2023-05-21T11:55:39.989Z,31.40
2023-05-21T12:00:40.648Z,31.50
2023-05-21T12:05:47.451Z,31.40
2023-05-21T12:10:46.254Z,31.00
2023-05-21T12:15:46.681Z,30.70
2023-05-21T12:20:46.346Z,31.00
2023-05-21T12:25:44.661Z,30.80
2023-05-21T12:30:43.026Z,31.00
2023-05-21T12:35:41.367Z,31.10
2023-05-21T12:40:41.596Z,31.30
2023-05-21T12:45:42.787Z,31.30
2023-05-21T12:50:42.320Z,31.10
2023-05-21T12:55:41.962Z,31.00
2023-05-21T13:00:43.277Z,31.10
2023-05-21T13:05:42.517Z,31.30
2023-05-21T13:10:42.132Z,31.30
2023-05-21T13:15:40.251Z,31.10
2023-05-21T13:20:39.067Z,31.20
2023-05-21T13:25:37.541Z,31.50
2023-05-21T13:30:37.787Z,32.00
2023-05-21T13:35:36.665Z,32.30
2023-05-21T13:40:37.364Z,32.10
2023-05-21T13:45:39.022Z,31.70
2023-05-21T13:50:37.286Z,31.20
2023-05-21T13:55:36.191Z,31.20
2023-05-21T14:00:34.624Z,30.90
2023-05-21T14:05:34.364Z,30.90
2023-05-21T14:10:32.677Z,31.10
2023-05-21T14:15:32.455Z,30.90
2023-05-21T14:20:30.677Z,30.60
2023-05-21T14:25:30.246Z,30.50
2023-05-21T14:30:28.520Z,30.30
2023-05-21T14:35:26.623Z,30.10
2023-05-21T14:40:24.989Z,29.90
2023-05-21T14:45:24.598Z,29.90
2023-05-21T14:50:22.870Z,29.90
2023-05-21T14:55:22.347Z,29.90
2023-05-21T15:00:20.949Z,29.90
2023-05-21T15:05:20.705Z,29.90
2023-05-21T15:10:19.240Z,29.80
2023-05-21T15:15:18.031Z,29.80
2023-05-21T15:20:16.535Z,29.90
2023-05-21T15:25:19.197Z,29.90
2023-05-21T15:30:17.640Z,30.00
2023-05-21T15:35:16.315Z,29.80
2023-05-21T15:40:16.160Z,29.60
2023-05-21T15:45:14.339Z,29.40
2023-05-21T15:50:13.013Z,29.10
2023-05-21T15:55:11.414Z,29.00
2023-05-21T16:00:12.716Z,29.10
2023-05-21T16:05:11.486Z,29.30
2023-05-21T16:10:11.556Z,29.50
2023-05-21T16:15:13.900Z,29.70
2023-05-21T16:20:13.387Z,29.90
2023-05-21T16:25:11.697Z,29.90
2023-05-21T16:30:12.146Z,29.90
2023-05-21T16:35:10.568Z,29.90
2023-05-21T16:40:10.637Z,29.70
2023-05-21T16:45:13.488Z,29.50
2023-05-21T16:50:11.797Z,29.30
2023-05-21T16:55:10.658Z,29.10
2023-05-21T17:00:09.838Z,28.90
2023-05-21T17:05:10.173Z,28.80
2023-05-21T17:10:09.284Z,28.50
2023-05-21T17:15:08.917Z,28.30
2023-05-21T17:20:10.099Z,28.20
2023-05-21T17:25:10.653Z,27.90
2023-05-21T17:30:10.455Z,27.70
2023-05-21T17:35:10.862Z,27.60
2023-05-21T17:40:10.316Z,27.40
2023-05-21T17:45:09.989Z,27.20
2023-05-21T17:50:11.628Z,27.10
2023-05-21T17:55:10.588Z,27.00
2023-05-21T18:00:10.357Z,26.90
2023-05-21T18:05:12.554Z,26.80
2023-05-21T18:10:10.939Z,26.60
2023-05-21T18:15:10.395Z,26.40
2023-05-21T18:20:09.602Z,26.30
2023-05-21T18:25:13.641Z,26.20
2023-05-21T18:30:12.721Z,26.00
2023-05-21T18:35:13.655Z,26.00
2023-05-21T18:40:15.485Z,25.90
2023-05-21T18:45:28.602Z,25.70
2023-05-21T18:50:29.944Z,25.60
2023-05-21T18:55:29.410Z,25.50
2023-05-21T19:00:27.712Z,25.40
2023-05-21T19:05:26.045Z,25.30
2023-05-21T19:10:24.689Z,25.30
2023-05-21T19:15:25.734Z,25.20
2023-05-21T19:20:25.956Z,25.10
2023-05-21T19:25:24.665Z,25.00
2023-05-21T19:30:24.438Z,24.90
2023-05-21T19:35:23.321Z,24.80
2023-05-21T19:40:22.760Z,24.80
2023-05-21T19:45:21.624Z,24.80
2023-05-21T19:50:21.398Z,24.70
2023-05-21T19:55:20.347Z,24.60
2023-05-21T20:00:19.168Z,24.60
2023-05-21T20:05:18.695Z,24.50
2023-05-21T20:10:18.458Z,24.40
2023-05-21T20:15:18.189Z,24.40
2023-05-21T20:20:16.926Z,24.30
2023-05-21T20:25:15.251Z,24.30
2023-05-21T20:30:15.261Z,24.30
2023-05-21T20:35:13.877Z,24.20
2023-05-21T20:40:14.803Z,24.20
2023-05-21T20:45:16.007Z,24.10
2023-05-21T20:50:14.521Z,24.10
2023-05-21T20:55:12.830Z,24.00
2023-05-21T21:00:11.963Z,24.00
2023-05-21T21:05:12.803Z,24.00
2023-05-21T21:10:11.505Z,24.00
2023-05-21T21:15:10.882Z,23.90
2023-05-21T21:20:12.980Z,23.90
2023-05-21T21:25:11.438Z,23.80
2023-05-21T21:30:10.801Z,23.70
2023-05-21T21:35:10.119Z,23.60
2023-05-21T21:40:11.126Z,23.60
2023-05-21T21:45:10.732Z,23.50
2023-05-21T21:50:09.838Z,23.50
2023-05-21T21:55:11.637Z,23.50
2023-05-21T22:00:15.965Z,23.40
2023-05-21T22:05:15.140Z,23.30
2023-05-21T22:10:15.468Z,23.20
2023-05-21T22:15:20.845Z,23.20
2023-05-21T22:20:19.417Z,23.10
2023-05-21T22:25:19.157Z,23.00
2023-05-21T22:30:17.625Z,22.90
2023-05-21T22:35:18.922Z,22.80
2023-05-21T22:40:18.813Z,22.70
2023-05-21T22:45:18.897Z,22.60
2023-05-21T22:50:18.233Z,22.50
2023-05-21T22:55:19.148Z,22.40
2023-05-21T23:00:19.284Z,22.40
2023-05-21T23:05:17.658Z,22.30
2023-05-21T23:10:16.097Z,22.30
2023-05-21T23:15:16.044Z,22.20
2023-05-21T23:20:15.600Z,22.20
2023-05-21T23:25:13.922Z,22.10
2023-05-21T23:30:12.768Z,22.10
2023-05-21T23:35:14.563Z,22.00
2023-05-21T23:40:13.695Z,22.00
2023-05-21T23:45:12.684Z,22.00
2023-05-21T23:50:12.715Z,21.90
2023-05-21T23:55:14.695Z,21.90
